AirNav   Pilot Hours Calculator
 
 977 users online  

AZ30 United Bank Plaza Heliport
Phoenix, Arizona, USA

GOING TO PHOENIX?


FAA INFORMATION EFFECTIVE 08 SEPTEMBER 2022

Location

FAA Identifier: AZ30
Lat/Long: 33-29-07.1540N 112-04-28.5360W
33-29.119233N 112-04.475600W
33.4853206,-112.0745933
(estimated)
Elevation: 1100 ft. / 335 m (estimated)
Variation: 13E (1985)
From city: 3 miles N of PHOENIX, AZ
Time zone: UTC -7 (year round; does not observe DST)
Zip code: 85012

Heliport Operations

Heliport use: Private use. Permission required prior to landing
Activation date: 02/1981
Control tower: no
ARTCC: ALBUQUERQUE CENTER
FSS: PRESCOTT FLIGHT SERVICE STATION
Attendance: UNATNDD
Wind indicator: no
Segmented circle: no

Heliport Communications

WX ASOS at PHX (4 nm SE): PHONE 602-231-8557
WX AWOS-3 at GEU (11 nm W): PHONE 623-877-8609
WX ASOS at SDL (12 nm NE): PHONE 480-483-3049
WX ASOS at DVT (12 nm N): 126.5 (623-587-7764)
WX ASOS at FFZ (17 nm E): PHONE 480-641-4111
WX AWOS-3PT at CHD (19 nm SE): PHONE 480-814-9952

Nearby radio navigation aids

VOR radial/distance  VOR name  Freq  Var
PXRr289/6.1PHOENIX VORTAC115.6012E
IWAr284/23.8WILLIE VORTAC113.3013E
TFDr335/36.9STANFIELD VORTAC114.8012E
BXKr073/37.6BUCKEYE VORTAC110.6014E

Heliport Services

Runway Information

Helipad H1

Dimensions: 400 x 400 ft. / 122 x 122 m
Surface: turf
Latitude: 33-29.119167N
Longitude: 112-04.475667W
Elevation: 1100.0 ft.
Traffic pattern: leftleft

Heliport Ownership and Management from official FAA records

Ownership: Privately-owned
Owner: OXFORD PROPERTIES, INC.
3300 NORTH CENTRAL-SUITE 1680
PHOENIX, AZ 85012
Phone 602-274-4433
Manager: RONALD D. HUDDLESTON
3300 NORTH CENTRAL-SUITE 1680
PHOENIX, AZ 85012
Phone 602-274-4433

Additional Remarks

OWNER DESIRES HELIPORT NOT BE CHARTED.
FOR CD CTC PHOENIX APCH AT 602-306-2565.

Instrument Procedures

There are no published instrument procedures at AZ30.

Some nearby airports with instrument procedures:

KPHX - Phoenix Sky Harbor International Airport (4 nm SE)
KGEU - Glendale Municipal Airport (11 nm W)
KSDL - Scottsdale Airport (12 nm NE)
KDVT - Phoenix Deer Valley Airport (12 nm N)
P19 - Stellar Airpark (14 nm SE)
KGYR - Phoenix Goodyear Airport (16 nm W)
KLUF - Luke Air Force Base (16 nm W)
KFFZ - Falcon Field Airport (17 nm E)
KCHD - Chandler Municipal Airport (19 nm SE)
 
Loc | Ops | Rwys | IFR | FBO | Links
Com | Nav | Svcs | Stats | Notes
Area around AZ30 (United Bank Plaza Heliport)
 
Road maps at: MapQuest Bing Google
 
Aerial photo
No photo
 
Sectional chart

 
Airport distance calculator
Flying to United Bank Plaza Heliport? Find the distance to fly.

From to AZ30

Sunrise and sunset
Times for 02-Oct-2022
 Local
(UTC-7)
 Zulu
(UTC)
Morning civil twilight06:0013:00
Sunrise06:2413:24
Sunset18:1101:11
Evening civil twilight18:3601:36

Current date and time
Zulu (UTC)  02-Oct-2022 18:44:38
Local (UTC-7)  02-Oct-2022 11:44:38
 
METAR
KPHX 
3nm S 
021751Z 13005KT 10SM FEW100 FEW200 32/14 A2991 RMK AO2 SLP109 T03220144 10322 20256 50003 $
KSDL 
11nm NE 
021753Z VRB03KT 10SM CLR 31/13 A2995 RMK AO2 SLP116 T03110133 10311 20244 50002
KGEU 
12nm W 
021752Z VRB03KT 10SM FEW150 31/16 A2992
KDVT 
12nm N 
021753Z 21006KT 10SM CLR 31/14 A2995 RMK AO2 SLP116 T03060139 10311 20233 50001
KLUF 
15nm W 
021755Z AUTO 34003KT 10SM CLR 32/16 A2991 RMK AO2 SLP113 T03180157 10318 20238 50001 $
KGYR 
15nm W 
021747Z VRB04KT 10SM FEW070 31/18 A2994
KFFZ 
18nm E 
021754Z VRB03KT 10SM CLR 31/14 A2994 RMK AO2 SLP112 T03060144 10311 20244 50001
KCHD 
18nm SE 
021747Z VRB06KT 10SM CLR 31/15 A2994
TAF
KPHX 
3nm S 
021720Z 0218/0324 16007KT P6SM FEW100 FEW150 FM022200 21007KT P6SM FEW100 FEW150 FM030000 25006KT P6SM FEW100 FEW150 FM030400 10005KT P6SM FEW100 SCT150 SCT250 FM031700 14008KT P6SM FEW100 FEW150 FM032100 28008KT P6SM FEW100 FEW150
KSDL 
11nm NE 
021720Z 0218/0318 VRB04KT P6SM FEW100 FEW150 FM022100 21007KT P6SM FEW100 FEW150 FM030300 04005KT P6SM FEW100 SCT150 SCT250 FM030800 VRB03KT P6SM FEW100 FEW150
KDVT 
12nm N 
021720Z 0218/0318 18008KT P6SM FEW100 FEW150 FM022200 23009KT P6SM FEW100 FEW150 FM030400 03008KT P6SM FEW100 SCT150 SCT250 FM030900 VRB04KT P6SM FEW100 FEW150
NOTAMs
Click for the latest NOTAMs
NOTAMs are issued by the DoD/FAA and will open in a separate window not controlled by AirNav.

 

 
 

Would you like to see your business listed on this page?

 If your business provides an interesting product or service to pilots, flight crews, aircraft, or users of the United Bank Plaza Heliport, you should consider listing it here.  To start the listing process, click on the button below
 
Add a business
 

Other Pages about United Bank Plaza Heliport

Update a link
 
Copyright © AirNav, LLC. All rights reserved. Privacy Policy  Contact